createdAt,value
2019-04-04T00:01:51.701Z,2.67
2019-04-04T00:04:21.831Z,2.80
2019-04-04T00:06:48.832Z,2.17
2019-04-04T00:09:17.752Z,2.53
2019-04-04T00:11:45.231Z,3.00
2019-04-04T00:14:13.414Z,3.40
2019-04-04T00:16:40.932Z,2.70
2019-04-04T00:19:08.330Z,2.80
2019-04-04T00:21:35.711Z,4.67
2019-04-04T00:24:03.276Z,4.43
2019-04-04T00:26:30.660Z,5.97
2019-04-04T00:29:01.184Z,6.40
2019-04-04T00:31:27.609Z,3.20
2019-04-04T00:33:55.874Z,3.47
2019-04-04T00:36:23.852Z,4.20
2019-04-04T00:38:51.442Z,3.80
2019-04-04T00:41:18.831Z,9.50
2019-04-04T00:43:46.252Z,5.00
2019-04-04T00:46:13.641Z,3.60
2019-04-04T00:48:41.015Z,3.97
2019-04-04T00:51:08.619Z,3.23
2019-04-04T00:53:36.154Z,3.43
2019-04-04T00:56:03.711Z,3.30
2019-04-04T00:58:31.094Z,3.70
2019-04-04T01:00:59.131Z,5.10
2019-04-04T01:03:29.752Z,5.33
2019-04-04T01:05:55.792Z,4.20
2019-04-04T01:08:23.170Z,6.17
2019-04-04T01:10:50.559Z,5.33
2019-04-04T01:13:21.233Z,6.77
2019-04-04T01:15:49.032Z,5.90
2019-04-04T01:18:16.435Z,5.80
2019-04-04T01:20:43.787Z,7.37
2019-04-04T01:23:11.177Z,6.40
2019-04-04T01:25:38.552Z,6.20
2019-04-04T01:28:06.141Z,6.17
2019-04-04T01:30:35.211Z,6.23
2019-04-04T01:33:03.874Z,7.23
2019-04-04T01:35:31.395Z,8.27
2019-04-04T01:37:58.880Z,9.93
2019-04-04T01:40:26.662Z,10.90
2019-04-04T01:42:54.046Z,8.30
2019-04-04T01:45:21.402Z,8.07
2019-04-04T01:47:48.753Z,8.50
2019-04-04T01:50:16.038Z,10.87
2019-04-04T01:52:43.314Z,9.37
2019-04-04T01:55:10.576Z,11.27
2019-04-04T01:57:38.934Z,12.10
2019-04-04T02:00:09.241Z,9.43
2019-04-04T02:02:36.469Z,9.13
2019-04-04T02:05:05.693Z,10.90
2019-04-04T02:07:32.952Z,10.60
2019-04-04T02:10:00.203Z,14.03
2019-04-04T02:12:27.529Z,11.63
2019-04-04T02:14:54.826Z,10.87
2019-04-04T02:17:22.303Z,13.00
2019-04-04T02:19:50.134Z,11.43
2019-04-04T02:22:17.573Z,13.63
2019-04-04T02:24:44.812Z,13.07
2019-04-04T02:27:12.072Z,13.17
2019-04-04T02:29:39.945Z,14.77
2019-04-04T02:32:11.913Z,14.77
2019-04-04T02:34:39.216Z,12.33
2019-04-04T02:37:06.446Z,13.63
2019-04-04T02:39:35.283Z,14.60
2019-04-04T02:42:02.954Z,14.17
2019-04-04T02:44:32.267Z,13.90
2019-04-04T02:46:59.410Z,13.30
2019-04-04T02:49:29.221Z,12.43
2019-04-04T02:51:55.798Z,13.80
2019-04-04T02:54:24.666Z,12.33
2019-04-04T02:56:52.188Z,14.27
2019-04-04T02:59:21.490Z,12.37
2019-04-04T03:01:48.584Z,10.10
2019-04-04T03:04:15.938Z,13.60
2019-04-04T03:06:43.287Z,13.77
2019-04-04T03:09:10.704Z,14.80
2019-04-04T03:11:42.380Z,16.73
2019-04-04T03:14:09.627Z,16.30
2019-04-04T03:16:36.867Z,15.67
2019-04-04T03:19:04.250Z,15.53
2019-04-04T03:21:31.470Z,16.53
2019-04-04T03:23:58.718Z,17.03
2019-04-04T03:26:26.013Z,15.57
2019-04-04T03:28:53.258Z,16.83
2019-04-04T03:31:20.676Z,16.67
2019-04-04T03:33:47.913Z,18.43
2019-04-04T03:36:15.170Z,17.77
2019-04-04T03:38:45.985Z,17.40
2019-04-04T03:41:11.573Z,18.07
2019-04-04T03:43:38.956Z,19.97
2019-04-04T03:46:06.226Z,16.97
2019-04-04T03:48:33.491Z,18.70
2019-04-04T03:51:04.069Z,19.23
2019-04-04T03:53:29.927Z,19.23
2019-04-04T03:56:00.318Z,19.97
2019-04-04T03:58:28.030Z,19.50
2019-04-04T04:00:55.415Z,17.83
2019-04-04T04:03:23.615Z,20.37
2019-04-04T04:05:50.930Z,20.87
2019-04-04T04:08:20.967Z,20.07
2019-04-04T04:10:47.419Z,20.53
2019-04-04T04:13:17.221Z,19.90
2019-04-04T04:15:44.075Z,19.83
2019-04-04T04:18:11.313Z,19.67
2019-04-04T04:20:38.561Z,20.50
2019-04-04T04:23:05.857Z,20.83
2019-04-04T04:25:36.596Z,19.53
2019-04-04T04:28:03.141Z,18.20
2019-04-04T04:30:30.734Z,21.10
2019-04-04T04:32:58.800Z,20.47
2019-04-04T04:35:26.012Z,20.63
2019-04-04T04:37:53.897Z,19.53
2019-04-04T04:40:21.550Z,19.43
2019-04-04T04:42:48.911Z,19.53
2019-04-04T04:45:16.271Z,20.70
2019-04-04T04:47:43.574Z,20.63
2019-04-04T04:50:10.928Z,20.20
2019-04-04T04:52:38.247Z,21.33
2019-04-04T04:55:05.561Z,20.13
2019-04-04T04:57:34.427Z,20.97
2019-04-04T05:00:02.029Z,20.90
2019-04-04T05:02:29.246Z,20.33
2019-04-04T05:04:57.247Z,20.13
2019-04-04T05:07:25.682Z,20.90
2019-04-04T05:09:52.907Z,21.90
2019-04-04T05:12:21.679Z,22.20
2019-04-04T05:14:49.269Z,22.07
2019-04-04T05:17:16.535Z,22.23
2019-04-04T05:19:45.146Z,21.23
2019-04-04T05:22:12.629Z,22.20
2019-04-04T05:24:39.969Z,23.43
2019-04-04T05:27:07.334Z,22.90
2019-04-04T05:29:34.570Z,23.43
2019-04-04T05:32:01.842Z,24.13
2019-04-04T05:34:30.398Z,24.63
2019-04-04T05:36:58.250Z,23.50
2019-04-04T05:39:25.575Z,23.20
2019-04-04T05:41:52.874Z,22.80
2019-04-04T05:44:20.149Z,23.73
2019-04-04T05:46:51.015Z,22.13
2019-04-04T05:49:16.666Z,25.77
2019-04-04T05:51:43.955Z,23.50
2019-04-04T05:54:11.232Z,23.50
2019-04-04T05:56:38.469Z,23.53
2019-04-04T05:59:05.688Z,25.70
2019-04-04T06:01:35.152Z,25.93
2019-04-04T06:04:03.935Z,22.67
2019-04-04T06:06:33.372Z,23.93
2019-04-04T06:09:00.518Z,26.53
2019-04-04T06:11:27.749Z,24.17
2019-04-04T06:13:54.992Z,25.53
2019-04-04T06:16:22.377Z,24.37
2019-04-04T06:18:49.637Z,24.83
2019-04-04T06:21:18.501Z,24.93
2019-04-04T06:23:46.131Z,26.60
2019-04-04T06:26:13.414Z,26.53
2019-04-04T06:28:40.726Z,22.00
2019-04-04T06:31:08.036Z,25.40
2019-04-04T06:33:35.968Z,24.13
2019-04-04T06:36:03.285Z,22.63
2019-04-04T06:38:30.534Z,23.77
2019-04-04T06:40:58.878Z,24.40
2019-04-04T06:43:28.190Z,25.37
2019-04-04T06:45:55.527Z,23.60
2019-04-04T06:48:22.866Z,21.07
2019-04-04T06:50:50.079Z,25.10
2019-04-04T06:53:17.329Z,22.87
2019-04-04T06:55:44.598Z,24.70
2019-04-04T06:58:11.835Z,24.40
2019-04-04T07:00:41.851Z,21.33
2019-04-04T07:03:08.249Z,21.27
2019-04-04T07:05:37.812Z,23.80
2019-04-04T07:08:04.694Z,22.50
2019-04-04T07:10:32.309Z,21.93
2019-04-04T07:13:09.687Z,22.80
2019-04-04T07:15:29.250Z,21.47
2019-04-04T07:17:56.670Z,12.47
2019-04-04T07:20:24.182Z,19.50
2019-04-04T07:22:51.704Z,20.63
2019-04-04T07:25:18.970Z,22.43
2019-04-04T07:27:47.407Z,22.80
2019-04-04T07:30:15.666Z,23.00
2019-04-04T07:32:42.923Z,22.63
2019-04-04T07:35:10.319Z,21.17
2019-04-04T07:37:37.567Z,20.40
2019-04-04T07:40:04.993Z,19.20
2019-04-04T07:42:33.249Z,18.30
2019-04-04T07:45:00.469Z,20.20
2019-04-04T07:47:27.754Z,20.63
2019-04-04T07:49:55.458Z,19.00
2019-04-04T07:52:22.749Z,19.40
2019-04-04T07:54:50.249Z,21.43
2019-04-04T07:57:19.748Z,23.30
2019-04-04T07:59:46.660Z,22.50
2019-04-04T08:02:13.910Z,19.37
2019-04-04T08:04:41.315Z,18.77
2019-04-04T08:07:08.579Z,19.70
2019-04-04T08:09:35.842Z,18.93
2019-04-04T08:12:03.189Z,18.73
2019-04-04T08:14:30.436Z,19.57
2019-04-04T08:16:57.726Z,19.67
2019-04-04T08:19:24.989Z,20.43
2019-04-04T08:21:52.272Z,20.50
2019-04-04T08:24:19.572Z,19.23
2019-04-04T08:26:46.836Z,18.50
2019-04-04T08:29:14.076Z,19.20
2019-04-04T08:31:41.397Z,18.37
2019-04-04T08:34:08.736Z,17.97
2019-04-04T08:36:36.098Z,16.60
2019-04-04T08:39:06.208Z,16.73
2019-04-04T08:41:33.468Z,16.27
2019-04-04T08:44:00.756Z,14.80
2019-04-04T08:46:28.032Z,13.90
2019-04-04T08:48:55.309Z,13.40
2019-04-04T08:51:22.540Z,14.20
2019-04-04T08:53:50.910Z,15.70
2019-04-04T08:56:18.190Z,16.70
2019-04-04T08:58:45.432Z,17.50
2019-04-04T09:01:12.766Z,17.73
2019-04-04T09:03:40.007Z,14.83
2019-04-04T09:06:07.306Z,6.80
2019-04-04T09:08:34.544Z,5.80
2019-04-04T09:11:01.917Z,5.43
2019-04-04T09:13:29.240Z,3.27
2019-04-04T09:15:56.467Z,2.83
2019-04-04T09:18:23.716Z,2.60
2019-04-04T09:20:51.075Z,1.50
2019-04-04T09:23:18.283Z,3.00
2019-04-04T09:25:45.515Z,11.40
2019-04-04T09:28:12.774Z,0.93
2019-04-04T09:30:40.450Z,0.77
2019-04-04T09:33:07.719Z,0.60
2019-04-04T09:35:34.924Z,0.70
2019-04-04T09:38:02.199Z,0.50
2019-04-04T09:40:29.473Z,3.40
2019-04-04T09:42:59.600Z,2.67
2019-04-04T09:45:27.201Z,2.07
2019-04-04T09:47:54.434Z,2.30
2019-04-04T09:50:21.630Z,0.43
2019-04-04T09:52:48.922Z,0.60
2019-04-04T09:55:16.163Z,0.50
2019-04-04T09:57:43.427Z,0.97
2019-04-04T10:00:12.246Z,0.80
2019-04-04T10:02:39.649Z,1.23
2019-04-04T10:05:07.495Z,0.10
2019-04-04T10:07:34.739Z,0.23
2019-04-04T10:10:01.954Z,1.83
2019-04-04T10:12:29.713Z,0.13
2019-04-04T10:14:57.182Z,2.30
2019-04-04T10:17:24.448Z,5.80
2019-04-04T10:19:51.684Z,0.20
2019-04-04T10:22:18.899Z,0.63
2019-04-04T10:24:46.162Z,0.27
2019-04-04T10:27:13.440Z,0.80
2019-04-04T10:29:40.710Z,0.43
2019-04-04T10:32:07.949Z,0.53
2019-04-04T10:34:35.528Z,2.10
2019-04-04T10:37:02.772Z,0.20
2019-04-04T10:39:32.716Z,1.17
2019-04-04T10:41:59.188Z,1.73
2019-04-04T10:44:26.418Z,0.30
2019-04-04T10:46:53.748Z,0.93
2019-04-04T10:49:20.959Z,2.60
2019-04-04T10:51:48.231Z,0.53
2019-04-04T10:54:16.477Z,0.00
2019-04-04T10:56:43.788Z,0.10
2019-04-04T10:59:11.039Z,1.53
2019-04-04T11:01:38.311Z,0.97
2019-04-04T11:04:05.612Z,0.33
2019-04-04T11:06:32.894Z,1.53
2019-04-04T11:09:00.180Z,0.63
2019-04-04T11:11:27.491Z,0.30
2019-04-04T11:13:54.850Z,1.37
2019-04-04T11:16:30.096Z,0.20
2019-04-04T11:18:51.614Z,0.30
2019-04-04T11:21:18.868Z,0.37
2019-04-04T11:23:46.232Z,1.60
2019-04-04T11:26:13.489Z,0.57
2019-04-04T11:28:40.736Z,0.53
2019-04-04T11:31:08.055Z,3.37
2019-04-04T11:33:35.324Z,1.27
2019-04-04T11:36:02.547Z,0.20
2019-04-04T11:38:29.832Z,0.20
2019-04-04T11:40:57.103Z,0.33
2019-04-04T11:43:24.388Z,0.43
2019-04-04T11:45:51.666Z,0.30
2019-04-04T11:48:19.001Z,0.43
2019-04-04T11:50:46.290Z,0.40
2019-04-04T11:53:13.574Z,0.10
2019-04-04T11:55:40.864Z,0.33
2019-04-04T11:58:08.235Z,0.20
2019-04-04T12:00:37.272Z,0.30
2019-04-04T12:03:04.736Z,2.80
2019-04-04T12:05:32.021Z,0.33
2019-04-04T12:07:59.269Z,0.30
2019-04-04T12:10:26.566Z,1.73
2019-04-04T12:12:53.806Z,0.20
2019-04-04T12:15:21.075Z,0.10
2019-04-04T12:17:48.386Z,1.13
2019-04-04T12:20:15.728Z,0.30
2019-04-04T12:22:43.012Z,1.63
2019-04-04T12:25:10.333Z,0.40
2019-04-04T12:27:37.574Z,0.30
2019-04-04T12:30:05.172Z,0.40
2019-04-04T12:32:32.453Z,0.20
2019-04-04T12:34:59.761Z,0.00
2019-04-04T12:37:27.108Z,0.10
2019-04-04T12:39:54.355Z,0.10
2019-04-04T12:42:21.768Z,0.00
2019-04-04T12:44:49.493Z,0.40
2019-04-04T12:47:16.798Z,0.50
2019-04-04T12:49:44.007Z,0.20
2019-04-04T12:52:11.334Z,0.40
2019-04-04T12:54:38.589Z,0.23
2019-04-04T12:57:06.057Z,0.10
2019-04-04T12:59:33.346Z,0.80
2019-04-04T13:02:00.618Z,0.77
2019-04-04T13:04:31.900Z,0.27
2019-04-04T13:06:57.032Z,0.77
2019-04-04T13:09:24.293Z,1.37
2019-04-04T13:11:51.569Z,0.37
2019-04-04T13:14:18.895Z,1.50
2019-04-04T13:16:46.155Z,1.60
2019-04-04T13:19:13.423Z,2.07
2019-04-04T13:21:40.789Z,2.30
2019-04-04T13:24:08.017Z,0.50
2019-04-04T13:26:35.349Z,0.80
2019-04-04T13:29:02.685Z,1.10
2019-04-04T13:31:30.015Z,0.73
2019-04-04T13:33:57.230Z,0.30
2019-04-04T13:36:24.489Z,2.33
2019-04-04T13:38:51.737Z,20.37
2019-04-04T13:41:22.248Z,2.30
2019-04-04T13:43:48.232Z,2.67
2019-04-04T13:46:15.490Z,1.10
2019-04-04T13:48:43.635Z,0.90
2019-04-04T13:51:11.509Z,1.10
2019-04-04T13:53:41.264Z,0.77
2019-04-04T13:56:07.941Z,0.60
2019-04-04T13:58:35.244Z,1.50
2019-04-04T14:01:02.624Z,2.67
2019-04-04T14:03:29.896Z,2.93
2019-04-04T14:05:57.182Z,0.57
2019-04-04T14:08:24.455Z,2.60
2019-04-04T14:10:58.059Z,0.33
2019-04-04T14:13:20.915Z,1.47
2019-04-04T14:15:48.176Z,4.30
2019-04-04T14:18:21.232Z,0.47
2019-04-04T14:20:49.330Z,0.30
2019-04-04T14:23:16.615Z,0.37
2019-04-04T14:25:43.852Z,0.30
2019-04-04T14:28:11.165Z,0.53
2019-04-04T14:30:38.359Z,1.30
2019-04-04T14:33:05.631Z,0.17
2019-04-04T14:35:32.940Z,0.67
2019-04-04T14:38:00.217Z,0.50
2019-04-04T14:40:27.548Z,1.47
2019-04-04T14:42:54.843Z,0.43
2019-04-04T14:45:22.179Z,1.00
2019-04-04T14:47:49.589Z,1.60
2019-04-04T14:50:16.840Z,0.47
2019-04-04T14:52:44.216Z,1.43
2019-04-04T14:55:12.024Z,1.77
2019-04-04T14:57:39.379Z,0.77
2019-04-04T15:00:09.620Z,0.30
2019-04-04T15:02:36.976Z,1.90
2019-04-04T15:05:04.430Z,1.13
2019-04-04T15:07:31.773Z,0.40
2019-04-04T15:09:59.045Z,3.37
2019-04-04T15:12:26.563Z,3.03
2019-04-04T15:14:53.911Z,1.93
2019-04-04T15:17:21.331Z,3.07
2019-04-04T15:19:49.000Z,2.80
2019-04-04T15:22:16.470Z,2.63
2019-04-04T15:24:44.070Z,0.77
2019-04-04T15:27:11.475Z,5.60
2019-04-04T15:29:38.826Z,1.50
2019-04-04T15:32:06.216Z,5.63
2019-04-04T15:34:33.595Z,4.63
2019-04-04T15:37:01.290Z,10.30
2019-04-04T15:39:28.807Z,9.83
2019-04-04T15:41:57.062Z,9.87
2019-04-04T15:44:24.601Z,8.87
2019-04-04T15:46:52.169Z,8.00
2019-04-04T15:49:19.610Z,9.33
2019-04-04T15:51:47.115Z,8.23
2019-04-04T15:54:14.448Z,8.07
2019-04-04T15:56:42.792Z,7.93
2019-04-04T15:59:10.114Z,8.33
2019-04-04T16:01:37.554Z,7.83
2019-04-04T16:04:05.069Z,9.03
2019-04-04T16:06:32.727Z,10.27
2019-04-04T16:09:00.190Z,19.47
2019-04-04T16:11:27.678Z,18.23
2019-04-04T16:13:55.083Z,18.20
2019-04-04T16:16:22.623Z,12.90
2019-04-04T16:18:50.032Z,9.20
2019-04-04T16:21:17.828Z,9.37
2019-04-04T16:23:45.756Z,12.03
2019-04-04T16:26:14.819Z,15.47
2019-04-04T16:28:42.418Z,10.17
2019-04-04T16:31:09.887Z,11.33
2019-04-04T16:33:37.406Z,9.70
2019-04-04T16:36:05.535Z,9.33
2019-04-04T16:38:33.274Z,12.27
2019-04-04T16:41:00.844Z,15.97
2019-04-04T16:43:28.220Z,10.03
2019-04-04T16:45:55.753Z,13.90
2019-04-04T16:48:23.355Z,18.67
2019-04-04T16:50:50.995Z,8.87
2019-04-04T16:53:18.593Z,8.53
2019-04-04T16:55:46.145Z,14.53
2019-04-04T16:58:13.676Z,10.50
2019-04-04T17:00:41.809Z,5.80
2019-04-04T17:03:09.390Z,7.30
2019-04-04T17:05:40.341Z,9.40
2019-04-04T17:08:08.017Z,8.23
2019-04-04T17:10:36.729Z,5.17
2019-04-04T17:13:04.621Z,9.20
2019-04-04T17:15:32.675Z,6.97
2019-04-04T17:18:00.399Z,5.43
2019-04-04T17:20:28.097Z,8.37
2019-04-04T17:22:56.069Z,6.50
2019-04-04T17:25:25.404Z,5.37
2019-04-04T17:27:53.382Z,5.30
2019-04-04T17:30:22.339Z,6.20
2019-04-04T17:32:50.335Z,5.17
2019-04-04T17:35:18.888Z,12.03
2019-04-04T17:37:47.001Z,4.80
2019-04-04T17:40:15.189Z,3.93
2019-04-04T17:42:43.409Z,4.60
2019-04-04T17:45:11.989Z,5.33
2019-04-04T17:47:39.882Z,5.13
2019-04-04T17:50:10.146Z,3.40
2019-04-04T17:52:38.088Z,4.67
2019-04-04T17:55:07.405Z,6.67
2019-04-04T17:57:36.208Z,5.40
2019-04-04T18:00:09.600Z,5.33
2019-04-04T18:02:37.561Z,4.00
2019-04-04T18:05:06.137Z,4.40
2019-04-04T18:07:34.062Z,2.43
2019-04-04T18:10:01.951Z,2.53
2019-04-04T18:12:39.699Z,16.57
2019-04-04T18:14:59.662Z,4.80
2019-04-04T18:17:28.442Z,3.27
2019-04-04T18:19:56.377Z,2.27
2019-04-04T18:22:26.310Z,3.40
2019-04-04T18:24:54.033Z,4.10
2019-04-04T18:27:21.819Z,7.23
2019-04-04T18:29:49.827Z,3.00
2019-04-04T18:32:17.557Z,2.93
2019-04-04T18:34:45.273Z,2.60
2019-04-04T18:37:13.031Z,3.30
2019-04-04T18:39:40.932Z,5.27
2019-04-04T18:42:08.845Z,8.20
2019-04-04T18:44:36.815Z,3.47
2019-04-04T18:47:04.962Z,2.60
2019-04-04T18:49:32.629Z,3.17
2019-04-04T18:52:01.277Z,2.37
2019-04-04T18:54:29.636Z,2.37
2019-04-04T18:56:57.586Z,2.33
2019-04-04T18:59:26.967Z,1.70
2019-04-04T19:01:55.123Z,3.10
2019-04-04T19:04:23.236Z,2.50
2019-04-04T19:06:51.332Z,2.13
2019-04-04T19:09:19.618Z,2.87
2019-04-04T19:11:47.364Z,3.07
2019-04-04T19:14:15.484Z,12.70
2019-04-04T19:16:44.383Z,2.60
2019-04-04T19:19:12.140Z,3.10
2019-04-04T19:21:40.973Z,5.47
2019-04-04T19:24:11.596Z,2.83
2019-04-04T19:26:39.264Z,3.30
2019-04-04T19:29:11.815Z,2.37
2019-04-04T19:31:40.371Z,2.40
2019-04-04T19:34:09.775Z,2.30
2019-04-04T19:36:37.564Z,2.93
2019-04-04T19:39:09.535Z,4.40
2019-04-04T19:41:37.398Z,2.40
2019-04-04T19:44:05.277Z,1.93
2019-04-04T19:46:37.219Z,3.00
2019-04-04T19:49:02.951Z,2.13
2019-04-04T19:51:32.215Z,1.83
2019-04-04T19:54:00.243Z,1.00
2019-04-04T19:56:29.346Z,2.07
2019-04-04T19:58:57.572Z,2.80
2019-04-04T20:01:25.786Z,2.83
2019-04-04T20:03:53.501Z,2.00
2019-04-04T20:06:21.113Z,4.03
2019-04-04T20:08:53.655Z,1.80
2019-04-04T20:11:20.657Z,1.53
2019-04-04T20:13:48.296Z,1.87
2019-04-04T20:16:16.137Z,2.40
2019-04-04T20:18:43.708Z,3.40
2019-04-04T20:21:11.764Z,1.93
2019-04-04T20:23:39.413Z,1.20
2019-04-04T20:26:07.521Z,1.27
2019-04-04T20:28:36.044Z,1.60
2019-04-04T20:31:03.717Z,1.37
2019-04-04T20:33:31.232Z,1.90
2019-04-04T20:35:58.978Z,1.97
2019-04-04T20:38:26.662Z,1.00
2019-04-04T20:40:54.294Z,2.67
2019-04-04T20:43:21.928Z,2.30
2019-04-04T20:45:49.659Z,2.17
2019-04-04T20:48:17.140Z,2.50
2019-04-04T20:50:44.832Z,2.10
2019-04-04T20:53:12.498Z,2.53
2019-04-04T20:55:40.249Z,2.77
2019-04-04T20:58:07.573Z,2.60
2019-04-04T21:00:35.118Z,2.67
2019-04-04T21:03:02.707Z,2.90
2019-04-04T21:05:30.182Z,2.53
2019-04-04T21:07:57.478Z,2.60
2019-04-04T21:10:24.831Z,2.30
2019-04-04T21:12:52.163Z,1.97
2019-04-04T21:15:19.465Z,1.17
2019-04-04T21:17:46.795Z,1.97
2019-04-04T21:20:14.072Z,2.20
2019-04-04T21:22:41.337Z,1.80
2019-04-04T21:25:08.698Z,1.80
2019-04-04T21:27:36.042Z,1.30
2019-04-04T21:30:03.669Z,1.40
2019-04-04T21:32:31.261Z,2.50
2019-04-04T21:34:58.564Z,2.17
2019-04-04T21:37:25.787Z,1.50
2019-04-04T21:39:53.056Z,3.07
2019-04-04T21:42:20.361Z,2.13
2019-04-04T21:44:47.622Z,1.40
2019-04-04T21:47:14.909Z,1.30
2019-04-04T21:49:42.692Z,1.70
2019-04-04T21:52:09.901Z,1.60
2019-04-04T21:54:37.174Z,1.97
2019-04-04T21:57:04.382Z,1.70
2019-04-04T21:59:31.612Z,2.23
2019-04-04T22:01:58.953Z,2.10
2019-04-04T22:04:26.245Z,2.67
2019-04-04T22:06:53.491Z,4.60
2019-04-04T22:09:20.867Z,3.10
2019-04-04T22:11:48.120Z,2.60
2019-04-04T22:14:21.712Z,2.23
2019-04-04T22:16:44.553Z,2.40
2019-04-04T22:19:11.789Z,2.50
2019-04-04T22:21:39.026Z,6.00
2019-04-04T22:24:06.309Z,3.90
2019-04-04T22:26:33.615Z,3.27
2019-04-04T22:29:00.957Z,3.03
2019-04-04T22:31:28.212Z,3.10
2019-04-04T22:33:55.428Z,3.10
2019-04-04T22:36:22.738Z,3.07
2019-04-04T22:38:49.976Z,3.70
2019-04-04T22:41:17.249Z,3.97
2019-04-04T22:43:44.512Z,4.63
2019-04-04T22:46:11.734Z,4.40
2019-04-04T22:48:38.968Z,4.47
2019-04-04T22:51:06.229Z,5.50
2019-04-04T22:53:33.461Z,6.27
2019-04-04T22:56:00.724Z,5.60
2019-04-04T22:58:28.933Z,7.13
2019-04-04T23:00:56.466Z,6.00
2019-04-04T23:03:24.643Z,6.10
2019-04-04T23:05:51.847Z,9.83
2019-04-04T23:08:19.103Z,6.70
2019-04-04T23:10:46.363Z,7.83
2019-04-04T23:13:13.585Z,6.90
2019-04-04T23:15:40.815Z,7.47
2019-04-04T23:18:08.086Z,8.47
2019-04-04T23:20:35.329Z,8.13
2019-04-04T23:23:02.547Z,8.13
2019-04-04T23:25:29.841Z,8.10
2019-04-04T23:27:57.004Z,8.07
2019-04-04T23:30:24.255Z,7.97
2019-04-04T23:32:51.546Z,9.80
2019-04-04T23:35:18.773Z,10.03
2019-04-04T23:37:46.020Z,8.63
2019-04-04T23:40:13.287Z,9.40
2019-04-04T23:42:40.577Z,8.93
2019-04-04T23:45:07.952Z,10.73
2019-04-04T23:47:42.625Z,8.53
2019-04-04T23:50:04.566Z,10.37
2019-04-04T23:52:31.886Z,8.87
2019-04-04T23:54:59.111Z,8.87
2019-04-04T23:57:26.370Z,9.67
2019-04-04T23:59:53.669Z,9.40
